sensor_id;sensor_type;location;lat;lon;timestamp;pressure;altitude;pressure_sealevel;temperature;humidity
77325;BME280;66387;53.440;10.390;2023-04-01T00:01:13;98894.22;;;9.40;94.81
77325;BME280;66387;53.440;10.390;2023-04-01T00:03:39;98889.97;;;9.37;94.69
77325;BME280;66387;53.440;10.390;2023-04-01T00:06:05;98897.59;;;9.42;95.36
77325;BME280;66387;53.440;10.390;2023-04-01T00:08:31;98896.69;;;9.43;94.99
77325;BME280;66387;53.440;10.390;2023-04-01T00:10:56;98885.59;;;9.39;94.71
77325;BME280;66387;53.440;10.390;2023-04-01T00:13:23;98889.03;;;9.40;95.33
77325;BME280;66387;53.440;10.390;2023-04-01T00:15:49;98896.81;;;9.40;94.77
77325;BME280;66387;53.440;10.390;2023-04-01T00:18:14;98898.56;;;9.39;95.23
77325;BME280;66387;53.440;10.390;2023-04-01T00:20:45;98899.41;;;9.40;95.02
77325;BME280;66387;53.440;10.390;2023-04-01T00:23:11;98903.78;;;9.38;95.31
77325;BME280;66387;53.440;10.390;2023-04-01T00:25:36;98897.00;;;9.33;95.54
77325;BME280;66387;53.440;10.390;2023-04-01T00:28:01;98894.31;;;9.36;95.42
77325;BME280;66387;53.440;10.390;2023-04-01T00:30:27;98896.97;;;9.35;95.67
77325;BME280;66387;53.440;10.390;2023-04-01T00:32:53;98896.06;;;9.36;96.07
77325;BME280;66387;53.440;10.390;2023-04-01T00:35:19;98897.69;;;9.39;95.42
77325;BME280;66387;53.440;10.390;2023-04-01T00:37:44;98894.22;;;9.40;95.69
77325;BME280;66387;53.440;10.390;2023-04-01T00:40:22;98887.34;;;9.39;95.55
77325;BME280;66387;53.440;10.390;2023-04-01T00:42:48;98901.03;;;9.42;95.49
77325;BME280;66387;53.440;10.390;2023-04-01T00:48:03;98889.13;;;9.36;95.61
77325;BME280;66387;53.440;10.390;2023-04-01T00:50:30;98893.41;;;9.38;95.31
77325;BME280;66387;53.440;10.390;2023-04-01T00:52:58;98889.81;;;9.42;95.84
77325;BME280;66387;53.440;10.390;2023-04-01T00:55:26;98888.22;;;9.38;95.77
77325;BME280;66387;53.440;10.390;2023-04-01T00:57:53;98892.75;;;9.32;95.50
77325;BME280;66387;53.440;10.390;2023-04-01T01:00:21;98897.06;;;9.32;95.74
77325;BME280;66387;53.440;10.390;2023-04-01T01:02:47;98896.16;;;9.33;95.59
77325;BME280;66387;53.440;10.390;2023-04-01T01:05:16;98890.94;;;9.34;95.44
77325;BME280;66387;53.440;10.390;2023-04-01T01:10:23;98897.00;;;9.33;95.79
77325;BME280;66387;53.440;10.390;2023-04-01T01:13:22;98895.50;;;9.28;96.48
77325;BME280;66387;53.440;10.390;2023-04-01T01:15:59;98899.72;;;9.30;96.15
77325;BME280;66387;53.440;10.390;2023-04-01T01:18:43;98898.84;;;9.30;96.52
77325;BME280;66387;53.440;10.390;2023-04-01T01:21:32;98900.59;;;9.29;95.45
77325;BME280;66387;53.440;10.390;2023-04-01T01:24:39;98900.03;;;9.21;96.85
77325;BME280;66387;53.440;10.390;2023-04-01T01:27:18;98894.03;;;9.21;96.22
77325;BME280;66387;53.440;10.390;2023-04-01T01:37:54;98889.69;;;9.21;96.01
77325;BME280;66387;53.440;10.390;2023-04-01T01:40:20;98895.06;;;9.15;96.04
77325;BME280;66387;53.440;10.390;2023-04-01T01:42:49;98905.22;;;9.21;96.10
77325;BME280;66387;53.440;10.390;2023-04-01T01:45:19;98900.94;;;9.20;96.32
77325;BME280;66387;53.440;10.390;2023-04-01T01:47:45;98893.94;;;9.22;96.15
77325;BME280;66387;53.440;10.390;2023-04-01T01:50:12;98896.66;;;9.19;96.78
77325;BME280;66387;53.440;10.390;2023-04-01T01:52:38;98903.56;;;9.19;96.48
77325;BME280;66387;53.440;10.390;2023-04-01T01:55:27;98905.22;;;9.21;96.36
77325;BME280;66387;53.440;10.390;2023-04-01T01:57:52;98901.16;;;9.14;96.98
77325;BME280;66387;53.440;10.390;2023-04-01T02:00:21;98895.81;;;9.19;96.38
77325;BME280;66387;53.440;10.390;2023-04-01T02:02:47;98904.41;;;9.19;96.24
77325;BME280;66387;53.440;10.390;2023-04-01T02:05:19;98900.25;;;9.15;95.80
77325;BME280;66387;53.440;10.390;2023-04-01T02:07:49;98902.78;;;9.17;95.76
77325;BME280;66387;53.440;10.390;2023-04-01T02:10:20;98900.34;;;9.12;96.71
77325;BME280;66387;53.440;10.390;2023-04-01T02:12:48;98904.50;;;9.18;95.87
77325;BME280;66387;53.440;10.390;2023-04-01T02:15:16;98902.78;;;9.17;96.01
77325;BME280;66387;53.440;10.390;2023-04-01T02:17:45;98912.28;;;9.16;95.93
77325;BME280;66387;53.440;10.390;2023-04-01T02:20:18;98908.00;;;9.15;96.76
77325;BME280;66387;53.440;10.390;2023-04-01T02:22:56;98910.66;;;9.14;96.65
77325;BME280;66387;53.440;10.390;2023-04-01T02:25:33;98907.22;;;9.13;95.86
77325;BME280;66387;53.440;10.390;2023-04-01T02:28:00;98908.94;;;9.14;96.13
77325;BME280;66387;53.440;10.390;2023-04-01T02:30:27;98907.84;;;9.20;96.38
77325;BME280;66387;53.440;10.390;2023-04-01T02:32:55;98914.03;;;9.16;96.59
77325;BME280;66387;53.440;10.390;2023-04-01T02:35:22;98913.88;;;9.20;96.08
77325;BME280;66387;53.440;10.390;2023-04-01T02:37:49;98918.22;;;9.20;95.79
77325;BME280;66387;53.440;10.390;2023-04-01T02:40:16;98912.28;;;9.16;96.55
77325;BME280;66387;53.440;10.390;2023-04-01T02:42:41;98913.00;;;9.21;96.04
77325;BME280;66387;53.440;10.390;2023-04-01T02:45:07;98922.53;;;9.19;96.10
77325;BME280;66387;53.440;10.390;2023-04-01T02:47:33;98919.06;;;9.20;95.71
77325;BME280;66387;53.440;10.390;2023-04-01T02:49:58;98919.78;;;9.24;96.56
77325;BME280;66387;53.440;10.390;2023-04-01T02:52:28;98920.84;;;9.18;96.14
77325;BME280;66387;53.440;10.390;2023-04-01T02:54:54;98924.38;;;9.16;96.28
77325;BME280;66387;53.440;10.390;2023-04-01T02:57:20;98929.63;;;9.14;96.29
77325;BME280;66387;53.440;10.390;2023-04-01T02:59:45;98922.78;;;9.12;96.31
77325;BME280;66387;53.440;10.390;2023-04-01T03:02:11;98935.56;;;9.18;96.30
77325;BME280;66387;53.440;10.390;2023-04-01T03:04:36;98934.59;;;9.20;96.17
77325;BME280;66387;53.440;10.390;2023-04-01T03:07:02;98930.38;;;9.18;96.81
77325;BME280;66387;53.440;10.390;2023-04-01T03:09:27;98936.34;;;9.20;96.27
77325;BME280;66387;53.440;10.390;2023-04-01T03:11:53;98936.59;;;9.12;96.58
77325;BME280;66387;53.440;10.390;2023-04-01T03:14:19;98932.31;;;9.11;96.35
77325;BME280;66387;53.440;10.390;2023-04-01T03:16:44;98945.97;;;9.15;96.57
77325;BME280;66387;53.440;10.390;2023-04-01T03:19:09;98938.97;;;9.18;96.70
77325;BME280;66387;53.440;10.390;2023-04-01T03:21:35;98942.41;;;9.19;96.95
77325;BME280;66387;53.440;10.390;2023-04-01T03:24:00;98942.28;;;9.22;96.17
77325;BME280;66387;53.440;10.390;2023-04-01T03:26:25;98942.28;;;9.22;96.25
77325;BME280;66387;53.440;10.390;2023-04-01T03:28:52;98942.28;;;9.22;96.50
77325;BME280;66387;53.440;10.390;2023-04-01T03:31:18;98945.72;;;9.22;96.12
77325;BME280;66387;53.440;10.390;2023-04-01T03:33:43;98942.47;;;9.17;96.36
77325;BME280;66387;53.440;10.390;2023-04-01T03:36:09;98943.25;;;9.19;96.45
77325;BME280;66387;53.440;10.390;2023-04-01T03:38:36;98944.00;;;9.23;96.21
77325;BME280;66387;53.440;10.390;2023-04-01T03:41:02;98946.53;;;9.24;96.40
77325;BME280;66387;53.440;10.390;2023-04-01T03:43:27;98954.34;;;9.23;96.40
77325;BME280;66387;53.440;10.390;2023-04-01T03:45:53;98948.44;;;9.19;96.79
77325;BME280;66387;53.440;10.390;2023-04-01T03:48:19;98951.72;;;9.24;96.49
77325;BME280;66387;53.440;10.390;2023-04-01T03:50:45;98951.81;;;9.21;96.35
77325;BME280;66387;53.440;10.390;2023-04-01T03:53:10;98951.91;;;9.18;95.79
77325;BME280;66387;53.440;10.390;2023-04-01T03:55:36;98954.50;;;9.18;96.42
77325;BME280;66387;53.440;10.390;2023-04-01T03:58:03;98957.19;;;9.15;96.36
77325;BME280;66387;53.440;10.390;2023-04-01T04:00:29;98956.41;;;9.13;96.75
77325;BME280;66387;53.440;10.390;2023-04-01T04:02:55;98963.63;;;9.04;96.18
77325;BME280;66387;53.440;10.390;2023-04-01T04:05:22;98963.44;;;9.10;96.65
77325;BME280;66387;53.440;10.390;2023-04-01T04:07:47;98956.44;;;9.12;97.03
77325;BME280;66387;53.440;10.390;2023-04-01T04:10:12;98958.13;;;9.14;96.97
77325;BME280;66387;53.440;10.390;2023-04-01T04:12:37;98958.16;;;9.13;96.33
77325;BME280;66387;53.440;10.390;2023-04-01T04:15:03;98965.06;;;9.12;96.44
77325;BME280;66387;53.440;10.390;2023-04-01T04:17:28;98970.97;;;9.16;96.92
77325;BME280;66387;53.440;10.390;2023-04-01T04:19:54;98970.13;;;9.15;96.93
77325;BME280;66387;53.440;10.390;2023-04-01T04:22:19;98973.56;;;9.16;96.04
77325;BME280;66387;53.440;10.390;2023-04-01T04:24:44;98972.78;;;9.14;96.61
77325;BME280;66387;53.440;10.390;2023-04-01T04:27:09;98982.28;;;9.13;96.04
77325;BME280;66387;53.440;10.390;2023-04-01T04:29:35;98983.06;;;9.15;96.62
77325;BME280;66387;53.440;10.390;2023-04-01T04:32:00;98983.06;;;9.15;96.44
77325;BME280;66387;53.440;10.390;2023-04-01T04:34:25;98977.78;;;9.18;96.30
77325;BME280;66387;53.440;10.390;2023-04-01T04:36:51;98988.16;;;9.18;96.91
77325;BME280;66387;53.440;10.390;2023-04-01T04:39:16;98986.63;;;9.13;97.08
77325;BME280;66387;53.440;10.390;2023-04-01T04:41:41;98995.13;;;9.16;96.22
77325;BME280;66387;53.440;10.390;2023-04-01T04:44:07;98993.44;;;9.15;97.01
77325;BME280;66387;53.440;10.390;2023-04-01T04:46:32;98996.84;;;9.17;96.29
77325;BME280;66387;53.440;10.390;2023-04-01T04:48:57;99007.13;;;9.19;96.84
77325;BME280;66387;53.440;10.390;2023-04-01T04:51:23;98995.88;;;9.20;96.30
77325;BME280;66387;53.440;10.390;2023-04-01T04:53:48;99004.28;;;9.26;96.71
77325;BME280;66387;53.440;10.390;2023-04-01T04:56:18;99007.75;;;9.25;96.77
77325;BME280;66387;53.440;10.390;2023-04-01T04:58:45;99009.47;;;9.26;96.42
77325;BME280;66387;53.440;10.390;2023-04-01T05:01:13;99014.59;;;9.28;96.73
77325;BME280;66387;53.440;10.390;2023-04-01T05:03:38;99012.91;;;9.27;96.00
77325;BME280;66387;53.440;10.390;2023-04-01T05:06:05;99018.94;;;9.27;96.32
77325;BME280;66387;53.440;10.390;2023-04-01T05:08:30;99022.28;;;9.29;96.54
77325;BME280;66387;53.440;10.390;2023-04-01T05:10:57;99022.28;;;9.29;96.05
77325;BME280;66387;53.440;10.390;2023-04-01T05:13:23;99019.72;;;9.29;96.80
77325;BME280;66387;53.440;10.390;2023-04-01T05:15:48;99031.88;;;9.27;96.78
77325;BME280;66387;53.440;10.390;2023-04-01T05:18:13;99023.16;;;9.30;96.92
77325;BME280;66387;53.440;10.390;2023-04-01T05:20:38;99025.88;;;9.25;96.88
77325;BME280;66387;53.440;10.390;2023-04-01T05:23:04;99026.72;;;9.26;96.37
77325;BME280;66387;53.440;10.390;2023-04-01T05:25:29;99028.53;;;9.24;96.35
77325;BME280;66387;53.440;10.390;2023-04-01T05:27:54;99030.16;;;9.26;96.64
77325;BME280;66387;53.440;10.390;2023-04-01T05:30:20;99038.91;;;9.24;96.65
77325;BME280;66387;53.440;10.390;2023-04-01T05:32:45;99037.25;;;9.21;97.19
77325;BME280;66387;53.440;10.390;2023-04-01T05:35:10;99041.41;;;9.25;96.27
77325;BME280;66387;53.440;10.390;2023-04-01T05:37:36;99047.63;;;9.21;96.84
77325;BME280;66387;53.440;10.390;2023-04-01T05:40:02;99057.25;;;9.16;97.02
77325;BME280;66387;53.440;10.390;2023-04-01T05:42:28;99062.66;;;9.10;97.00
77325;BME280;66387;53.440;10.390;2023-04-01T05:44:53;99055.53;;;8.89;94.91
77325;BME280;66387;53.440;10.390;2023-04-01T05:47:18;99061.25;;;8.72;94.67
77325;BME280;66387;53.440;10.390;2023-04-01T05:49:44;99075.59;;;8.53;94.47
77325;BME280;66387;53.440;10.390;2023-04-01T05:52:09;99067.69;;;8.30;94.85
77325;BME280;66387;53.440;10.390;2023-04-01T05:54:34;99069.16;;;8.08;94.51
77325;BME280;66387;53.440;10.390;2023-04-01T05:57:00;99077.78;;;8.07;94.94
77325;BME280;66387;53.440;10.390;2023-04-01T05:59:25;99078.84;;;8.00;94.32
77325;BME280;66387;53.440;10.390;2023-04-01T06:01:50;99080.09;;;7.85;94.51
77325;BME280;66387;53.440;10.390;2023-04-01T06:04:17;99092.31;;;7.78;94.58
77325;BME280;66387;53.440;10.390;2023-04-01T06:06:42;99099.41;;;7.72;94.40
77325;BME280;66387;53.440;10.390;2023-04-01T06:09:29;99098.06;;;7.56;94.70
77325;BME280;66387;53.440;10.390;2023-04-01T06:17:41;99112.97;;;7.46;94.50
77325;BME280;66387;53.440;10.390;2023-04-01T06:25:41;99112.22;;;7.41;95.08
77325;BME280;66387;53.440;10.390;2023-04-01T06:36:42;99136.44;;;7.35;94.61
77325;BME280;66387;53.440;10.390;2023-04-01T06:39:49;99137.06;;;7.45;94.46
77325;BME280;66387;53.440;10.390;2023-04-01T06:42:34;99145.28;;;7.25;93.34
77325;BME280;66387;53.440;10.390;2023-04-01T06:45:17;99147.38;;;7.10;94.32
77325;BME280;66387;53.440;10.390;2023-04-01T06:47:56;99141.81;;;7.26;94.14
77325;BME280;66387;53.440;10.390;2023-04-01T06:53:21;99150.72;;;7.13;93.86
77325;BME280;66387;53.440;10.390;2023-04-01T06:55:55;99161.00;;;7.15;93.84
77325;BME280;66387;53.440;10.390;2023-04-01T06:58:29;99161.00;;;7.15;93.66
77325;BME280;66387;53.440;10.390;2023-04-01T07:01:02;99164.50;;;7.12;93.65
77325;BME280;66387;53.440;10.390;2023-04-01T07:03:41;99166.56;;;6.98;93.22
77325;BME280;66387;53.440;10.390;2023-04-01T07:06:13;99165.88;;;6.88;94.10
77325;BME280;66387;53.440;10.390;2023-04-01T07:08:43;99171.88;;;6.89;93.12
77325;BME280;66387;53.440;10.390;2023-04-01T07:11:22;99176.72;;;7.04;93.55
77325;BME280;66387;53.440;10.390;2023-04-01T07:13:57;99184.91;;;7.23;94.20
77325;BME280;66387;53.440;10.390;2023-04-01T07:16:31;99189.44;;;7.13;93.27
77325;BME280;66387;53.440;10.390;2023-04-01T07:19:14;99188.06;;;6.97;93.13
77325;BME280;66387;53.440;10.390;2023-04-01T07:21:45;99194.00;;;7.01;92.68
77325;BME280;66387;53.440;10.390;2023-04-01T07:24:39;99202.19;;;6.81;93.08
77325;BME280;66387;53.440;10.390;2023-04-01T07:27:05;99208.00;;;6.89;92.83
77325;BME280;66387;53.440;10.390;2023-04-01T07:29:33;99212.13;;;6.98;93.62
77325;BME280;66387;53.440;10.390;2023-04-01T07:32:09;99215.69;;;6.92;93.29
77325;BME280;66387;53.440;10.390;2023-04-01T07:34:44;99224.34;;;6.89;93.73
77325;BME280;66387;53.440;10.390;2023-04-01T07:37:18;99218.59;;;6.75;93.53
77325;BME280;66387;53.440;10.390;2023-04-01T07:39:56;99222.19;;;6.68;93.80
77325;BME280;66387;53.440;10.390;2023-04-01T07:42:37;99231.56;;;6.72;94.37
77325;BME280;66387;53.440;10.390;2023-04-01T07:45:19;99238.22;;;6.82;93.92
77325;BME280;66387;53.440;10.390;2023-04-01T07:47:54;99234.66;;;6.89;93.84
77325;BME280;66387;53.440;10.390;2023-04-01T07:50:32;99245.81;;;6.90;93.74
77325;BME280;66387;53.440;10.390;2023-04-01T07:53:31;99242.44;;;6.88;93.69
77325;BME280;66387;53.440;10.390;2023-04-01T07:56:11;99246.84;;;6.81;93.55
77325;BME280;66387;53.440;10.390;2023-04-01T07:58:55;99255.69;;;6.70;93.85
77325;BME280;66387;53.440;10.390;2023-04-01T08:04:27;99269.47;;;6.69;92.80
77325;BME280;66387;53.440;10.390;2023-04-01T08:07:13;99272.06;;;6.67;92.92
77325;BME280;66387;53.440;10.390;2023-04-01T08:09:48;99268.59;;;6.70;93.09
77325;BME280;66387;53.440;10.390;2023-04-01T08:15:20;99271.41;;;6.56;92.96
77325;BME280;66387;53.440;10.390;2023-04-01T08:20:34;99284.06;;;6.70;92.65
77325;BME280;66387;53.440;10.390;2023-04-01T08:24:04;99291.94;;;6.61;92.40
77325;BME280;66387;53.440;10.390;2023-04-01T08:28:54;99302.47;;;6.50;92.46
77325;BME280;66387;53.440;10.390;2023-04-01T08:34:20;99305.78;;;6.57;93.20
77325;BME280;66387;53.440;10.390;2023-04-01T08:36:53;99309.84;;;6.70;92.86
77325;BME280;66387;53.440;10.390;2023-04-01T08:42:28;99322.34;;;6.44;92.53
77325;BME280;66387;53.440;10.390;2023-04-01T08:45:22;99324.25;;;6.32;92.75
77325;BME280;66387;53.440;10.390;2023-04-01T08:50:56;99338.84;;;6.32;92.97
77325;BME280;66387;53.440;10.390;2023-04-01T08:53:44;99328.63;;;6.27;92.51
77325;BME280;66387;53.440;10.390;2023-04-01T08:56:17;99333.75;;;6.29;92.82
77325;BME280;66387;53.440;10.390;2023-04-01T08:58:57;99342.25;;;6.34;91.99
77325;BME280;66387;53.440;10.390;2023-04-01T09:07:41;99341.41;;;6.33;91.84
77325;BME280;66387;53.440;10.390;2023-04-01T09:13:13;99348.91;;;6.47;92.31
77325;BME280;66387;53.440;10.390;2023-04-01T09:15:54;99355.59;;;6.57;92.25
77325;BME280;66387;53.440;10.390;2023-04-01T09:18:48;99362.25;;;6.70;92.22
77325;BME280;66387;53.440;10.390;2023-04-01T09:24:19;99364.00;;;6.68;91.58
77325;BME280;66387;53.440;10.390;2023-04-01T09:27:08;99367.63;;;6.58;91.80
77325;BME280;66387;53.440;10.390;2023-04-01T09:38:00;99374.50;;;6.58;92.64
77325;BME280;66387;53.440;10.390;2023-04-01T09:40:55;99385.63;;;6.61;91.80
77325;BME280;66387;53.440;10.390;2023-04-01T09:43:34;99393.28;;;6.66;91.95
77325;BME280;66387;53.440;10.390;2023-04-01T09:46:36;99394.28;;;6.59;91.80
77325;BME280;66387;53.440;10.390;2023-04-01T09:52:10;99399.06;;;6.80;91.69
77325;BME280;66387;53.440;10.390;2023-04-01T09:55:03;99410.78;;;6.99;91.34
77325;BME280;66387;53.440;10.390;2023-04-01T10:00:35;99419.66;;;6.81;91.00
77325;BME280;66387;53.440;10.390;2023-04-01T10:06:17;99422.34;;;6.75;91.12
77325;BME280;66387;53.440;10.390;2023-04-01T10:11:56;99432.72;;;6.71;90.32
77325;BME280;66387;53.440;10.390;2023-04-01T10:17:26;99443.66;;;6.85;91.34
77325;BME280;66387;53.440;10.390;2023-04-01T10:20:21;99439.59;;;6.73;91.68
77325;BME280;66387;53.440;10.390;2023-04-01T10:36:55;99457.59;;;6.75;91.30
77325;BME280;66387;53.440;10.390;2023-04-01T10:39:51;99459.13;;;6.88;91.55
77325;BME280;66387;53.440;10.390;2023-04-01T10:51:04;99471.34;;;6.77;90.64
77325;BME280;66387;53.440;10.390;2023-04-01T10:56:40;99471.16;;;6.86;91.61
77325;BME280;66387;53.440;10.390;2023-04-01T11:13:38;99497.13;;;6.77;91.66
77325;BME280;66387;53.440;10.390;2023-04-01T11:22:24;99510.91;;;6.74;91.81
77325;BME280;66387;53.440;10.390;2023-04-01T11:25:04;99521.16;;;6.79;91.86
77325;BME280;66387;53.440;10.390;2023-04-01T11:30:18;99523.91;;;6.67;91.43
77325;BME280;66387;53.440;10.390;2023-04-01T11:33:12;99526.47;;;6.70;91.02
77325;BME280;66387;53.440;10.390;2023-04-01T11:39:05;99535.81;;;6.75;91.12
77325;BME280;66387;53.440;10.390;2023-04-01T11:41:52;99539.44;;;6.64;90.33
77325;BME280;66387;53.440;10.390;2023-04-01T11:44:25;99544.53;;;6.68;90.05
77325;BME280;66387;53.440;10.390;2023-04-01T11:50:21;99553.19;;;6.64;89.53
77325;BME280;66387;53.440;10.390;2023-04-01T11:56:19;99560.09;;;6.61;90.87
77325;BME280;66387;53.440;10.390;2023-04-01T11:59:08;99570.38;;;6.65;90.52
77325;BME280;66387;53.440;10.390;2023-04-01T12:07:15;99575.53;;;6.65;90.52
77325;BME280;66387;53.440;10.390;2023-04-01T12:13:16;99585.13;;;6.53;90.59
77325;BME280;66387;53.440;10.390;2023-04-01T12:21:58;99602.00;;;6.11;90.28
77325;BME280;66387;53.440;10.390;2023-04-01T12:24:55;99602.88;;;6.08;90.61
77325;BME280;66387;53.440;10.390;2023-04-01T12:27:40;99609.63;;;6.18;90.94
77325;BME280;66387;53.440;10.390;2023-04-01T12:33:24;99614.09;;;6.03;90.86
77325;BME280;66387;53.440;10.390;2023-04-01T12:39:07;99622.56;;;6.15;90.20
77325;BME280;66387;53.440;10.390;2023-04-01T12:41:41;99633.66;;;6.20;90.85
77325;BME280;66387;53.440;10.390;2023-04-01T12:44:49;99631.13;;;6.19;91.41
77325;BME280;66387;53.440;10.390;2023-04-01T13:01:45;99659.75;;;5.90;90.39
77325;BME280;66387;53.440;10.390;2023-04-01T13:04:47;99668.19;;;6.01;90.70
77325;BME280;66387;53.440;10.390;2023-04-01T13:07:25;99662.06;;;6.14;90.92
77325;BME280;66387;53.440;10.390;2023-04-01T13:21:18;99694.03;;;5.95;90.15
77325;BME280;66387;53.440;10.390;2023-04-01T13:29:28;99707.00;;;5.80;90.58
77325;BME280;66387;53.440;10.390;2023-04-01T13:32:11;99713.81;;;5.91;90.74
77325;BME280;66387;53.440;10.390;2023-04-01T13:38:29;99725.09;;;5.75;91.04
77325;BME280;66387;53.440;10.390;2023-04-01T13:40:37;99720.88;;;5.62;90.80
77325;BME280;66387;53.440;10.390;2023-04-01T13:43:47;99724.31;;;5.61;90.49
77325;BME280;66387;53.440;10.390;2023-04-01T13:49:00;99735.47;;;5.62;89.51
77325;BME280;66387;53.440;10.390;2023-04-01T13:51:33;99739.75;;;5.67;90.45
77325;BME280;66387;53.440;10.390;2023-04-01T13:54:23;99742.34;;;5.64;90.24
77325;BME280;66387;53.440;10.390;2023-04-01T14:05:24;99750.91;;;5.68;90.72
77325;BME280;66387;53.440;10.390;2023-04-01T14:19:20;99775.81;;;5.63;89.26
77325;BME280;66387;53.440;10.390;2023-04-01T14:22:02;99770.72;;;5.57;89.47
77325;BME280;66387;53.440;10.390;2023-04-01T14:24:40;99793.09;;;5.46;89.27
77325;BME280;66387;53.440;10.390;2023-04-01T14:30:04;99805.88;;;5.55;90.11
77325;BME280;66387;53.440;10.390;2023-04-01T14:38:24;99811.00;;;5.58;89.46
77325;BME280;66387;53.440;10.390;2023-04-01T14:41:21;99817.00;;;5.61;88.79
77325;BME280;66387;53.440;10.390;2023-04-01T14:44:23;99815.28;;;5.62;88.73
77325;BME280;66387;53.440;10.390;2023-04-01T14:47:28;99817.09;;;5.43;88.72
77325;BME280;66387;53.440;10.390;2023-04-01T14:50:06;99814.56;;;5.37;89.25
77325;BME280;66387;53.440;10.390;2023-04-01T14:52:38;99834.28;;;5.41;88.96
77325;BME280;66387;53.440;10.390;2023-04-01T14:55:21;99830.88;;;5.28;89.04
77325;BME280;66387;53.440;10.390;2023-04-01T14:57:58;99836.97;;;5.11;88.90
77325;BME280;66387;53.440;10.390;2023-04-01T15:00:25;99848.13;;;5.08;87.60
77325;BME280;66387;53.440;10.390;2023-04-01T15:02:57;99843.78;;;5.22;87.44
77325;BME280;66387;53.440;10.390;2023-04-01T15:11:24;99854.06;;;5.25;87.80
77325;BME280;66387;53.440;10.390;2023-04-01T15:14:15;99860.97;;;5.19;88.02
77325;BME280;66387;53.440;10.390;2023-04-01T15:22:50;99874.72;;;5.13;88.28
77325;BME280;66387;53.440;10.390;2023-04-01T15:28:07;99884.97;;;5.18;87.10
77325;BME280;66387;53.440;10.390;2023-04-01T15:34:07;99898.75;;;4.94;88.35
77325;BME280;66387;53.440;10.390;2023-04-01T15:36:44;99903.06;;;4.87;87.95
77325;BME280;66387;53.440;10.390;2023-04-01T15:42:39;99920.19;;;5.01;88.86
77325;BME280;66387;53.440;10.390;2023-04-01T15:45:47;99908.19;;;4.95;87.32
77325;BME280;66387;53.440;10.390;2023-04-01T15:48:33;99914.19;;;4.91;88.72
77325;BME280;66387;53.440;10.390;2023-04-01T15:51:22;99936.50;;;4.83;87.49
77325;BME280;66387;53.440;10.390;2023-04-01T15:57:20;99939.06;;;4.81;88.28
77325;BME280;66387;53.440;10.390;2023-04-01T16:02:49;99949.34;;;4.83;88.36
77325;BME280;66387;53.440;10.390;2023-04-01T16:11:22;99968.19;;;4.79;87.97
77325;BME280;66387;53.440;10.390;2023-04-01T16:20:12;99983.63;;;4.61;87.89
77325;BME280;66387;53.440;10.390;2023-04-01T16:22:48;99982.75;;;4.57;87.24
77325;BME280;66387;53.440;10.390;2023-04-01T16:25:39;99981.91;;;4.55;87.33
77325;BME280;66387;53.440;10.390;2023-04-01T16:28:42;99993.91;;;4.50;87.41
77325;BME280;66387;53.440;10.390;2023-04-01T16:31:25;99986.19;;;4.58;86.44
77325;BME280;66387;53.440;10.390;2023-04-01T16:34:04;100010.19;;;4.51;86.74
77325;BME280;66387;53.440;10.390;2023-04-01T16:36:52;100006.75;;;4.55;87.17
77325;BME280;66387;53.440;10.390;2023-04-01T16:44:44;100023.03;;;4.54;87.88
77325;BME280;66387;53.440;10.390;2023-04-01T16:47:16;100031.59;;;4.50;88.74
77325;BME280;66387;53.440;10.390;2023-04-01T16:49:47;100028.13;;;4.35;88.58
77325;BME280;66387;53.440;10.390;2023-04-01T16:52:40;100044.44;;;4.40;87.77
77325;BME280;66387;53.440;10.390;2023-04-01T16:55:16;100040.13;;;4.36;87.94
77325;BME280;66387;53.440;10.390;2023-04-01T16:57:48;100055.53;;;4.35;87.11
77325;BME280;66387;53.440;10.390;2023-04-01T17:00:28;100059.78;;;4.25;88.84
77325;BME280;66387;53.440;10.390;2023-04-01T17:05:46;100075.25;;;4.33;88.88
77325;BME280;66387;53.440;10.390;2023-04-01T17:08:29;100074.34;;;4.22;88.62
77325;BME280;66387;53.440;10.390;2023-04-01T17:11:19;100077.75;;;4.21;87.94
77325;BME280;66387;53.440;10.390;2023-04-01T17:16:44;100090.56;;;4.16;87.86
77325;BME280;66387;53.440;10.390;2023-04-01T17:19:31;100094.84;;;4.13;88.46
77325;BME280;66387;53.440;10.390;2023-04-01T17:22:07;100112.78;;;4.05;88.28
77325;BME280;66387;53.440;10.390;2023-04-01T17:27:34;100120.44;;;3.96;87.93
77325;BME280;66387;53.440;10.390;2023-04-01T17:30:26;100123.88;;;3.98;87.25
77325;BME280;66387;53.440;10.390;2023-04-01T17:44:34;100152.13;;;3.98;87.57
77325;BME280;66387;53.440;10.390;2023-04-01T17:47:29;100160.69;;;3.97;87.78
77325;BME280;66387;53.440;10.390;2023-04-01T17:58:02;100177.81;;;4.01;87.12
77325;BME280;66387;53.440;10.390;2023-04-01T18:00:52;100192.31;;;3.91;87.46
77325;BME280;66387;53.440;10.390;2023-04-01T18:06:36;100213.84;;;4.13;86.37
77325;BME280;66387;53.440;10.390;2023-04-01T18:09:33;100205.16;;;3.91;86.05
77325;BME280;66387;53.440;10.390;2023-04-01T18:12:12;100212.91;;;4.02;85.47
77325;BME280;66387;53.440;10.390;2023-04-01T18:15:09;100232.53;;;3.91;85.80
77325;BME280;66387;53.440;10.390;2023-04-01T18:20:28;100234.19;;;3.81;85.58
77325;BME280;66387;53.440;10.390;2023-04-01T18:23:00;100253.78;;;3.73;85.08
77325;BME280;66387;53.440;10.390;2023-04-01T18:25:39;100259.00;;;3.84;86.01
77325;BME280;66387;53.440;10.390;2023-04-01T18:31:11;100259.69;;;3.65;84.73
77325;BME280;66387;53.440;10.390;2023-04-01T18:33:56;100275.09;;;3.65;85.33
77325;BME280;66387;53.440;10.390;2023-04-01T18:39:04;100283.75;;;3.76;84.28
77325;BME280;66387;53.440;10.390;2023-04-01T18:41:50;100290.63;;;3.80;84.91
77325;BME280;66387;53.440;10.390;2023-04-01T18:44:44;100303.41;;;3.72;85.03
77325;BME280;66387;53.440;10.390;2023-04-01T18:47:22;100308.50;;;3.69;85.34
77325;BME280;66387;53.440;10.390;2023-04-01T18:52:44;100321.53;;;3.86;85.31
77325;BME280;66387;53.440;10.390;2023-04-01T18:55:29;100323.97;;;3.77;85.34
77325;BME280;66387;53.440;10.390;2023-04-01T18:58:06;100329.94;;;3.73;85.03
77325;BME280;66387;53.440;10.390;2023-04-01T19:00:44;100332.41;;;3.65;84.30
77325;BME280;66387;53.440;10.390;2023-04-01T19:03:31;100334.31;;;3.83;83.64